createdAt,value
2023-03-28T00:00:19.642Z,14.49
2023-03-28T00:01:21.578Z,14.31
2023-03-28T00:02:23.445Z,14.49
2023-03-28T00:03:27.362Z,14.42
2023-03-28T00:04:30.059Z,14.34
2023-03-28T00:05:32.016Z,14.32
2023-03-28T00:06:33.981Z,14.40
2023-03-28T00:07:36.378Z,14.65
2023-03-28T00:08:39.533Z,14.65
2023-03-28T00:09:41.536Z,14.28
2023-03-28T00:10:43.626Z,14.19
2023-03-28T00:11:46.021Z,14.75
2023-03-28T00:12:47.819Z,14.65
2023-03-28T00:14:00.966Z,14.62
2023-03-28T00:15:05.106Z,14.47
2023-03-28T00:16:10.157Z,14.55
2023-03-28T00:17:12.521Z,14.40
2023-03-28T00:18:14.516Z,14.56
2023-03-28T00:19:20.574Z,14.49
2023-03-28T00:20:22.362Z,14.24
2023-03-28T00:21:27.694Z,14.54
2023-03-28T00:22:30.614Z,14.56
2023-03-28T00:23:34.033Z,14.59
2023-03-28T00:24:38.844Z,14.50
2023-03-28T00:25:41.986Z,14.31
2023-03-28T00:26:45.390Z,14.44
2023-03-28T00:27:48.026Z,14.82
2023-03-28T00:28:50.199Z,14.39
2023-03-28T00:29:52.175Z,14.67
2023-03-28T00:30:54.080Z,14.40
2023-03-28T00:31:56.694Z,14.54
2023-03-28T00:32:58.821Z,14.33
2023-03-28T00:34:01.032Z,14.68
2023-03-28T00:35:03.045Z,14.61
2023-03-28T00:36:05.666Z,14.63
2023-03-28T00:37:10.798Z,14.67
2023-03-28T00:38:13.944Z,14.55
2023-03-28T00:39:15.852Z,14.64
2023-03-28T00:40:17.680Z,14.62
2023-03-28T00:41:23.255Z,14.87
2023-03-28T00:42:25.492Z,14.54
2023-03-28T00:43:41.778Z,14.88
2023-03-28T00:44:51.962Z,14.44
2023-03-28T00:46:06.494Z,14.48
2023-03-28T00:47:16.121Z,14.56
2023-03-28T00:48:18.157Z,14.52
2023-03-28T00:49:26.194Z,14.77
2023-03-28T00:50:36.884Z,14.41
2023-03-28T00:51:45.017Z,14.84
2023-03-28T00:53:10.184Z,14.26
2023-03-28T00:54:16.081Z,14.72
2023-03-28T00:55:23.787Z,14.57
2023-03-28T00:56:30.134Z,14.57
2023-03-28T00:57:33.722Z,14.66
2023-03-28T00:58:42.367Z,14.45
2023-03-28T00:59:45.093Z,14.36
2023-03-28T01:00:47.159Z,14.58
2023-03-28T01:01:50.855Z,14.55
2023-03-28T01:02:57.113Z,14.47
2023-03-28T01:04:03.240Z,14.36
2023-03-28T01:05:06.213Z,14.56
2023-03-28T01:06:09.362Z,14.46
2023-03-28T01:07:16.406Z,14.44
2023-03-28T01:08:22.231Z,14.38
2023-03-28T01:09:24.710Z,14.87
2023-03-28T01:10:28.476Z,14.28
2023-03-28T01:11:32.428Z,14.82
2023-03-28T01:12:34.566Z,14.21
2023-03-28T01:13:42.137Z,14.17
2023-03-28T01:14:46.635Z,14.99
2023-03-28T01:15:51.825Z,14.69
2023-03-28T01:16:56.584Z,14.33
2023-03-28T01:18:03.225Z,14.35
2023-03-28T01:19:07.102Z,14.69
2023-03-28T01:20:20.829Z,14.59
2023-03-28T01:21:34.108Z,14.69
2023-03-28T01:23:13.320Z,14.73
2023-03-28T01:24:47.262Z,14.66
2023-03-28T01:25:49.080Z,14.16
2023-03-28T01:26:53.913Z,14.33
2023-03-28T01:28:10.146Z,14.85
2023-03-28T01:29:38.960Z,14.33
2023-03-28T01:31:18.105Z,14.25
2023-03-28T01:33:27.871Z,14.23
2023-03-28T01:35:02.298Z,14.88
2023-03-28T01:36:34.061Z,14.29
2023-03-28T01:38:06.180Z,14.20
2023-03-28T01:39:20.616Z,14.50
2023-03-28T01:40:41.063Z,14.91
2023-03-28T01:41:57.547Z,14.71
2023-03-28T01:43:08.213Z,14.72
2023-03-28T01:44:34.419Z,14.44
2023-03-28T01:45:39.398Z,14.63
2023-03-28T01:46:59.387Z,14.88
2023-03-28T01:48:22.990Z,14.99
2023-03-28T01:49:42.021Z,14.64
2023-03-28T01:50:49.523Z,14.39
2023-03-28T01:52:16.345Z,14.85
2023-03-28T01:53:32.865Z,14.61
2023-03-28T01:54:37.576Z,14.57
2023-03-28T01:55:48.884Z,14.81
2023-03-28T01:57:12.366Z,14.96
2023-03-28T01:58:21.293Z,14.66
2023-03-28T01:59:42.951Z,14.47
2023-03-28T02:01:24.758Z,14.70
2023-03-28T02:02:36.972Z,14.72
2023-03-28T02:04:20.049Z,14.55
2023-03-28T02:05:36.491Z,14.65
2023-03-28T02:06:42.093Z,14.81
2023-03-28T02:07:52.310Z,14.74
2023-03-28T02:09:02.804Z,14.76
2023-03-28T02:10:26.429Z,14.46
2023-03-28T02:11:37.097Z,14.63
2023-03-28T02:13:11.603Z,14.66
2023-03-28T02:14:30.949Z,14.58
2023-03-28T02:16:06.855Z,14.49
2023-03-28T02:17:26.528Z,14.93
2023-03-28T02:18:49.625Z,14.89
2023-03-28T02:20:17.258Z,14.81
2023-03-28T02:22:03.156Z,14.74
2023-03-28T02:23:26.186Z,15.04
2023-03-28T02:24:53.967Z,14.62
2023-03-28T02:26:09.662Z,14.65
2023-03-28T02:27:31.104Z,14.53
2023-03-28T02:28:57.007Z,14.84
2023-03-28T02:30:25.079Z,14.75
2023-03-28T02:31:28.257Z,14.69
2023-03-28T02:32:34.113Z,14.76
2023-03-28T02:33:45.138Z,14.87
2023-03-28T02:34:49.183Z,14.73
2023-03-28T02:36:19.131Z,14.99
2023-03-28T02:37:41.256Z,14.46
2023-03-28T02:39:01.020Z,14.71
2023-03-28T02:40:07.552Z,14.84
2023-03-28T02:41:39.800Z,14.71
2023-03-28T02:43:11.012Z,14.61
2023-03-28T02:44:20.820Z,14.87
2023-03-28T02:46:01.823Z,14.87
2023-03-28T02:47:36.577Z,14.65
2023-03-28T02:48:44.363Z,14.90
2023-03-28T02:49:57.625Z,14.66
2023-03-28T02:51:14.273Z,14.76
2023-03-28T02:52:35.388Z,15.22
2023-03-28T02:53:52.676Z,14.89
2023-03-28T02:55:23.896Z,14.77
2023-03-28T02:56:45.313Z,14.50
2023-03-28T02:58:10.440Z,15.09
2023-03-28T02:59:34.520Z,14.70
2023-03-28T03:00:37.121Z,15.01
2023-03-28T03:01:41.050Z,14.68
2023-03-28T03:02:45.147Z,14.83
2023-03-28T03:03:48.402Z,14.76
2023-03-28T03:04:51.232Z,14.89
2023-03-28T03:05:53.155Z,14.75
2023-03-28T03:06:55.106Z,14.77
2023-03-28T03:07:57.076Z,14.63
2023-03-28T03:08:59.613Z,14.79
2023-03-28T03:10:02.229Z,15.30
2023-03-28T03:11:06.602Z,15.11
2023-03-28T03:12:08.504Z,14.98
2023-03-28T03:13:10.428Z,14.90
2023-03-28T03:14:12.728Z,14.86
2023-03-28T03:15:18.066Z,15.09
2023-03-28T03:16:29.387Z,14.77
2023-03-28T03:17:33.564Z,14.75
2023-03-28T03:18:35.544Z,15.21
2023-03-28T03:19:37.319Z,14.72
2023-03-28T03:20:41.277Z,15.25
2023-03-28T03:21:43.981Z,14.65
2023-03-28T03:22:45.978Z,14.86
2023-03-28T03:23:47.761Z,14.85
2023-03-28T03:24:53.246Z,14.84
2023-03-28T03:25:55.135Z,15.20
2023-03-28T03:27:02.276Z,14.77
2023-03-28T03:28:05.000Z,14.95
2023-03-28T03:29:07.008Z,15.08
2023-03-28T03:30:10.181Z,14.62
2023-03-28T03:31:32.787Z,14.76
2023-03-28T03:32:53.049Z,15.05
2023-03-28T03:33:55.391Z,14.99
2023-03-28T03:35:02.509Z,15.08
2023-03-28T03:36:05.572Z,14.59
2023-03-28T03:37:11.786Z,15.17
2023-03-28T03:38:13.714Z,14.98
2023-03-28T03:39:15.884Z,14.89
2023-03-28T03:40:18.785Z,14.81
2023-03-28T03:41:21.045Z,14.67
2023-03-28T03:42:24.048Z,14.95
2023-03-28T03:43:27.883Z,14.85
2023-03-28T03:44:30.443Z,14.72
2023-03-28T03:45:32.544Z,14.79
2023-03-28T03:46:34.391Z,14.50
2023-03-28T03:47:37.283Z,14.69
2023-03-28T03:48:39.332Z,14.75
2023-03-28T03:49:52.318Z,14.95
2023-03-28T03:50:54.190Z,14.67
2023-03-28T03:51:55.974Z,14.90
2023-03-28T03:52:58.755Z,15.08
2023-03-28T03:54:08.221Z,14.75
2023-03-28T03:55:12.495Z,14.83
2023-03-28T03:56:16.120Z,14.77
2023-03-28T03:57:27.868Z,15.20
2023-03-28T03:58:34.373Z,14.75
2023-03-28T03:59:40.694Z,15.11
2023-03-28T04:00:46.659Z,14.85
2023-03-28T04:02:04.140Z,15.10
2023-03-28T04:03:24.284Z,14.77
2023-03-28T04:04:29.815Z,14.63
2023-03-28T04:06:02.286Z,14.50
2023-03-28T04:07:04.538Z,14.87
2023-03-28T04:08:07.125Z,14.66
2023-03-28T04:09:12.005Z,15.12
2023-03-28T04:10:27.026Z,14.78
2023-03-28T04:11:29.552Z,14.63
2023-03-28T04:12:31.503Z,15.18
2023-03-28T04:13:33.419Z,14.67
2023-03-28T04:14:37.541Z,14.69
2023-03-28T04:15:58.240Z,14.48
2023-03-28T04:17:30.057Z,14.71
2023-03-28T04:18:37.874Z,15.07
2023-03-28T04:19:40.766Z,14.86
2023-03-28T04:20:43.371Z,14.69
2023-03-28T04:21:48.201Z,14.73
2023-03-28T04:22:50.495Z,14.89
2023-03-28T04:23:52.332Z,14.99
2023-03-28T04:25:04.619Z,14.98
2023-03-28T04:26:25.773Z,14.93
2023-03-28T04:27:47.395Z,14.78
2023-03-28T04:28:49.744Z,14.52
2023-03-28T04:29:55.980Z,15.00
2023-03-28T04:31:35.883Z,14.51
2023-03-28T04:32:54.449Z,14.85
2023-03-28T04:34:04.142Z,14.60
2023-03-28T04:35:08.588Z,15.15
2023-03-28T04:36:11.421Z,14.86
2023-03-28T04:37:13.376Z,14.59
2023-03-28T04:38:37.347Z,14.75
2023-03-28T04:40:11.140Z,14.83
2023-03-28T04:41:26.057Z,14.84
2023-03-28T04:42:30.994Z,14.99
2023-03-28T04:43:55.670Z,15.15
2023-03-28T04:44:57.523Z,14.57
2023-03-28T04:45:59.847Z,14.97
2023-03-28T04:47:01.882Z,15.06
2023-03-28T04:48:04.088Z,15.06
2023-03-28T04:49:06.041Z,15.32
2023-03-28T04:50:09.275Z,14.64
2023-03-28T04:51:12.401Z,14.95
2023-03-28T04:52:15.787Z,15.37
2023-03-28T04:53:20.600Z,14.94
2023-03-28T04:54:42.593Z,15.19
2023-03-28T04:55:50.575Z,14.93
2023-03-28T04:56:57.628Z,14.97
2023-03-28T04:58:10.620Z,15.05
2023-03-28T04:59:12.706Z,15.01
2023-03-28T05:00:17.279Z,15.00
2023-03-28T05:01:49.534Z,15.01
2023-03-28T05:03:22.938Z,15.14
2023-03-28T05:04:37.371Z,14.70
2023-03-28T05:05:41.719Z,14.86
2023-03-28T05:06:48.690Z,15.29
2023-03-28T05:07:50.881Z,15.14
2023-03-28T05:08:55.830Z,15.19
2023-03-28T05:10:01.977Z,15.16
2023-03-28T05:11:10.893Z,14.92
2023-03-28T05:12:12.774Z,14.78
2023-03-28T05:13:46.833Z,14.71
2023-03-28T05:15:00.317Z,14.90
2023-03-28T05:16:02.309Z,14.89
2023-03-28T05:17:27.470Z,14.63
2023-03-28T05:18:34.663Z,14.98
2023-03-28T05:19:36.901Z,14.59
2023-03-28T05:20:42.950Z,14.94
2023-03-28T05:21:44.741Z,14.43
2023-03-28T05:22:47.418Z,15.02
2023-03-28T05:23:51.614Z,14.81
2023-03-28T05:24:57.292Z,14.79
2023-03-28T05:25:59.835Z,14.55
2023-03-28T05:27:05.545Z,14.69
2023-03-28T05:28:07.465Z,14.59
2023-03-28T05:29:14.827Z,14.66
2023-03-28T05:30:21.584Z,14.50
2023-03-28T05:31:30.816Z,14.67
2023-03-28T05:32:48.988Z,14.52
2023-03-28T05:33:51.092Z,14.62
2023-03-28T05:35:05.846Z,14.25
2023-03-28T05:36:08.262Z,14.44
2023-03-28T05:37:11.892Z,14.22
2023-03-28T05:38:34.013Z,14.35
2023-03-28T05:39:43.194Z,14.42
2023-03-28T05:40:45.183Z,14.16
2023-03-28T05:41:47.082Z,14.29
2023-03-28T05:42:48.951Z,14.39
2023-03-28T05:43:54.340Z,14.10
2023-03-28T05:45:12.625Z,14.32
2023-03-28T05:46:43.616Z,14.20
2023-03-28T05:47:45.666Z,13.92
2023-03-28T05:48:49.563Z,14.12
2023-03-28T05:49:54.799Z,14.38
2023-03-28T05:50:56.974Z,13.99
2023-03-28T05:51:58.778Z,14.40
2023-03-28T05:53:00.822Z,14.04
2023-03-28T05:54:02.704Z,13.79
2023-03-28T05:55:06.113Z,14.21
2023-03-28T05:56:08.779Z,14.08
2023-03-28T05:57:11.286Z,14.18
2023-03-28T05:58:13.890Z,13.76
2023-03-28T05:59:18.293Z,14.35
2023-03-28T06:00:20.585Z,14.22
2023-03-28T06:01:28.946Z,13.78
2023-03-28T06:02:36.288Z,13.89
2023-03-28T06:03:40.178Z,14.23
2023-03-28T06:04:43.624Z,13.87
2023-03-28T06:05:49.423Z,13.81
2023-03-28T06:07:03.179Z,13.91
2023-03-28T06:08:05.286Z,14.07
2023-03-28T06:09:08.281Z,13.85
2023-03-28T06:10:22.242Z,13.81
2023-03-28T06:11:38.901Z,13.73
2023-03-28T06:12:43.279Z,14.00
2023-03-28T06:13:45.064Z,14.03
2023-03-28T06:14:48.433Z,13.85
2023-03-28T06:15:59.936Z,13.84
2023-03-28T06:17:10.385Z,14.14
2023-03-28T06:18:23.822Z,13.82
2023-03-28T06:19:26.567Z,14.13
2023-03-28T06:20:30.504Z,14.22
2023-03-28T06:21:33.542Z,14.18
2023-03-28T06:22:40.462Z,13.91
2023-03-28T06:23:45.312Z,13.94
2023-03-28T06:24:57.417Z,14.09
2023-03-28T06:26:02.608Z,13.96
2023-03-28T06:27:11.688Z,13.78
2023-03-28T06:28:15.834Z,14.21
2023-03-28T06:29:45.539Z,13.88
2023-03-28T06:30:49.441Z,13.94
2023-03-28T06:31:51.333Z,13.91
2023-03-28T06:32:54.007Z,14.23
2023-03-28T06:33:56.148Z,13.98
2023-03-28T06:34:58.277Z,13.73
2023-03-28T06:36:00.163Z,13.79
2023-03-28T06:37:06.022Z,13.79
2023-03-28T06:38:26.170Z,14.06
2023-03-28T06:39:28.257Z,13.89
2023-03-28T06:40:33.055Z,13.95
2023-03-28T06:41:35.215Z,14.16
2023-03-28T06:42:38.061Z,14.19
2023-03-28T06:43:54.786Z,14.14
2023-03-28T06:45:25.814Z,13.70
2023-03-28T06:46:53.755Z,13.66
2023-03-28T06:47:55.736Z,14.09
2023-03-28T06:49:09.913Z,14.09
2023-03-28T06:50:50.293Z,13.98
2023-03-28T06:51:54.852Z,14.07
2023-03-28T06:52:56.778Z,13.93
2023-03-28T06:53:58.716Z,13.94
2023-03-28T06:55:04.241Z,14.03
2023-03-28T06:56:07.302Z,14.13
2023-03-28T06:57:09.374Z,13.79
2023-03-28T06:58:13.050Z,14.15
2023-03-28T06:59:24.313Z,14.15
2023-03-28T07:00:32.278Z,13.97
2023-03-28T07:02:11.610Z,14.07
2023-03-28T07:03:14.853Z,14.21
2023-03-28T07:04:16.925Z,14.23
2023-03-28T07:05:21.038Z,14.09
2023-03-28T07:06:23.012Z,14.17
2023-03-28T07:07:24.884Z,14.45
2023-03-28T07:08:26.699Z,14.40
2023-03-28T07:09:28.604Z,14.21
2023-03-28T07:10:38.360Z,13.90
2023-03-28T07:11:40.357Z,14.28
2023-03-28T07:12:42.330Z,14.15
2023-03-28T07:13:44.121Z,14.02
2023-03-28T07:14:47.120Z,14.27
2023-03-28T07:15:59.962Z,13.99
2023-03-28T07:17:01.930Z,14.13
2023-03-28T07:18:05.501Z,14.30
2023-03-28T07:19:07.749Z,14.60
2023-03-28T07:20:11.998Z,14.18
2023-03-28T07:21:16.624Z,13.94
2023-03-28T07:22:18.526Z,14.27
2023-03-28T07:23:20.360Z,14.26
2023-03-28T07:24:23.336Z,13.90
2023-03-28T07:25:48.240Z,13.92
2023-03-28T07:26:51.991Z,13.93
2023-03-28T07:27:55.437Z,13.77
2023-03-28T07:28:57.503Z,13.95
2023-03-28T07:29:59.770Z,14.02
2023-03-28T07:31:04.564Z,14.33
2023-03-28T07:32:08.584Z,14.44
2023-03-28T07:33:17.391Z,14.32
2023-03-28T07:34:22.701Z,14.00
2023-03-28T07:35:25.044Z,14.26
2023-03-28T07:36:28.606Z,14.31
2023-03-28T07:37:36.904Z,14.40
2023-03-28T07:38:49.202Z,14.30
2023-03-28T07:39:54.512Z,13.91
2023-03-28T07:41:00.898Z,14.04
2023-03-28T07:42:03.323Z,14.27
2023-03-28T07:43:05.432Z,14.08
2023-03-28T07:44:08.272Z,14.11
2023-03-28T07:45:10.571Z,14.28
2023-03-28T07:46:14.965Z,14.24
2023-03-28T07:47:18.292Z,14.01
2023-03-28T07:48:20.368Z,14.05
2023-03-28T07:49:22.271Z,14.16
2023-03-28T07:50:25.020Z,14.37
2023-03-28T07:51:27.885Z,14.21
2023-03-28T07:52:30.161Z,14.10
2023-03-28T07:53:32.789Z,14.18
2023-03-28T07:54:35.293Z,14.28
2023-03-28T07:56:46.828Z,14.11
2023-03-28T07:57:57.208Z,14.41
2023-03-28T07:59:03.147Z,14.40
2023-03-28T08:00:13.099Z,14.37
2023-03-28T08:01:27.981Z,14.21
2023-03-28T08:02:34.308Z,14.09
2023-03-28T08:03:36.803Z,14.01
2023-03-28T08:04:38.846Z,14.26
2023-03-28T08:05:49.760Z,14.25
2023-03-28T08:06:52.372Z,14.23
2023-03-28T08:07:54.670Z,14.20
2023-03-28T08:08:57.476Z,14.37
2023-03-28T08:10:16.761Z,14.07
2023-03-28T08:11:18.671Z,14.25
2023-03-28T08:12:21.430Z,14.01
2023-03-28T08:13:24.564Z,14.13
2023-03-28T08:14:26.568Z,14.20
2023-03-28T08:15:30.513Z,14.18
2023-03-28T08:16:33.619Z,14.55
2023-03-28T08:17:36.019Z,14.38
2023-03-28T08:18:37.912Z,14.53
2023-03-28T08:19:40.329Z,14.27
2023-03-28T08:20:48.746Z,14.22
2023-03-28T08:21:51.251Z,14.43
2023-03-28T08:22:53.161Z,14.32
2023-03-28T08:24:35.664Z,14.27
2023-03-28T08:25:47.989Z,14.51
2023-03-28T08:26:53.308Z,14.39
2023-03-28T08:27:55.560Z,14.54
2023-03-28T08:29:01.173Z,14.57
2023-03-28T08:30:04.976Z,14.47
2023-03-28T08:31:14.328Z,14.70
2023-03-28T08:32:17.923Z,14.62
2023-03-28T08:33:20.132Z,14.75
2023-03-28T08:34:22.440Z,14.65
2023-03-28T08:35:25.047Z,14.66
2023-03-28T08:36:31.286Z,14.44
2023-03-28T08:37:33.834Z,14.57
2023-03-28T08:38:37.329Z,14.55
2023-03-28T08:39:41.594Z,14.62
2023-03-28T08:41:01.702Z,14.37
2023-03-28T08:42:46.577Z,14.76
2023-03-28T08:43:48.421Z,14.54
2023-03-28T08:45:16.196Z,14.58
2023-03-28T08:46:22.495Z,14.28
2023-03-28T08:47:31.466Z,14.79
2023-03-28T08:48:41.669Z,14.43
2023-03-28T08:50:08.825Z,14.77
2023-03-28T08:51:26.880Z,14.32
2023-03-28T08:52:30.523Z,14.42
2023-03-28T08:53:44.065Z,14.39
2023-03-28T08:54:52.172Z,14.49
2023-03-28T08:55:56.523Z,14.59
2023-03-28T08:57:02.925Z,14.52
2023-03-28T08:58:05.920Z,14.31
2023-03-28T08:59:16.686Z,14.54
2023-03-28T09:00:27.857Z,14.57
2023-03-28T09:01:32.847Z,14.47
2023-03-28T09:02:36.079Z,14.78
2023-03-28T09:03:38.262Z,14.69
2023-03-28T09:04:46.037Z,14.37
2023-03-28T09:06:07.848Z,14.53
2023-03-28T09:07:24.889Z,14.67
2023-03-28T09:08:52.577Z,14.65
2023-03-28T09:10:38.626Z,14.41
2023-03-28T09:12:26.990Z,14.53
2023-03-28T09:13:51.050Z,14.54
2023-03-28T09:15:16.596Z,14.25
2023-03-28T09:16:53.206Z,14.74
2023-03-28T09:18:37.301Z,14.51
2023-03-28T09:19:49.116Z,14.54
2023-03-28T09:21:38.552Z,14.63
2023-03-28T09:22:49.960Z,14.64
2023-03-28T09:23:53.165Z,14.57
2023-03-28T09:25:24.823Z,14.57
2023-03-28T09:27:20.716Z,14.27
2023-03-28T09:28:29.518Z,14.51
2023-03-28T09:29:36.476Z,14.54
2023-03-28T09:30:51.831Z,14.37
2023-03-28T09:32:03.238Z,14.61
2023-03-28T09:33:21.321Z,14.63
2023-03-28T09:34:27.806Z,14.37
2023-03-28T09:35:34.533Z,14.76
2023-03-28T09:36:48.980Z,14.89
2023-03-28T09:38:05.791Z,14.80
2023-03-28T09:39:17.904Z,14.72
2023-03-28T09:40:28.018Z,14.68
2023-03-28T09:42:02.493Z,14.57
2023-03-28T09:44:00.721Z,14.71
2023-03-28T09:45:30.501Z,14.40
2023-03-28T09:46:49.794Z,14.80
2023-03-28T09:48:32.849Z,14.78
2023-03-28T09:49:39.584Z,14.60
2023-03-28T09:50:45.577Z,14.60
2023-03-28T09:51:49.593Z,14.67
2023-03-28T09:52:51.801Z,14.53
2023-03-28T09:53:53.808Z,14.88
2023-03-28T09:54:56.292Z,14.82
2023-03-28T09:56:04.886Z,14.70
2023-03-28T09:57:12.337Z,14.67
2023-03-28T09:58:22.693Z,14.50
2023-03-28T09:59:42.135Z,14.59
2023-03-28T10:00:52.430Z,14.93
2023-03-28T10:02:29.337Z,14.47
2023-03-28T10:03:35.862Z,14.66
2023-03-28T10:04:41.935Z,14.81
2023-03-28T10:06:38.297Z,14.52
2023-03-28T10:07:45.023Z,14.82
2023-03-28T10:09:20.962Z,14.70
2023-03-28T10:10:40.193Z,14.67
2023-03-28T10:11:55.104Z,14.59
2023-03-28T10:13:03.632Z,14.27
2023-03-28T10:14:35.365Z,14.66
2023-03-28T10:15:47.146Z,14.72
2023-03-28T10:16:51.986Z,14.66
2023-03-28T10:18:05.884Z,14.70
2023-03-28T10:19:14.299Z,14.75
2023-03-28T10:20:38.030Z,14.63
2023-03-28T10:21:41.687Z,14.66
2023-03-28T10:22:50.051Z,14.98
2023-03-28T10:24:08.848Z,14.65
2023-03-28T10:25:31.540Z,14.52
2023-03-28T10:26:34.232Z,14.81
2023-03-28T10:27:40.112Z,14.70
2023-03-28T10:28:43.935Z,14.93
2023-03-28T10:29:47.161Z,14.87
2023-03-28T10:30:55.599Z,14.77
2023-03-28T10:31:58.378Z,14.92
2023-03-28T10:33:17.944Z,14.57
2023-03-28T10:35:01.318Z,14.50
2023-03-28T10:36:33.424Z,14.58
2023-03-28T10:37:37.902Z,14.80
2023-03-28T10:39:22.184Z,14.52
2023-03-28T10:40:59.089Z,14.61
2023-03-28T10:42:11.865Z,14.48
2023-03-28T10:43:42.505Z,14.60
2023-03-28T10:45:07.412Z,14.68
2023-03-28T10:46:20.066Z,14.81
2023-03-28T10:47:51.254Z,14.37
2023-03-28T10:49:06.916Z,14.84
2023-03-28T10:50:25.754Z,14.66
2023-03-28T10:51:31.623Z,14.85
2023-03-28T10:52:43.173Z,14.91
2023-03-28T10:53:49.264Z,14.84
2023-03-28T10:55:20.058Z,14.54
2023-03-28T10:56:52.907Z,14.77
2023-03-28T10:58:07.804Z,14.51
2023-03-28T10:59:51.727Z,14.79
2023-03-28T11:01:21.265Z,14.56
2023-03-28T11:02:48.753Z,14.46
2023-03-28T11:04:12.671Z,14.48
2023-03-28T11:06:08.175Z,14.67
2023-03-28T11:07:22.643Z,14.64
2023-03-28T11:09:12.352Z,14.51
2023-03-28T11:11:15.339Z,14.84
2023-03-28T11:12:40.853Z,14.82
2023-03-28T11:14:35.938Z,14.74
2023-03-28T11:15:57.104Z,14.55
2023-03-28T11:17:28.925Z,14.56
2023-03-28T11:19:00.843Z,14.49
2023-03-28T11:20:24.843Z,14.52
2023-03-28T11:21:46.760Z,14.63
2023-03-28T11:23:06.312Z,14.66
2023-03-28T11:24:26.653Z,14.87
2023-03-28T11:25:54.834Z,14.79
2023-03-28T11:27:45.377Z,14.79
2023-03-28T11:29:03.811Z,14.71
2023-03-28T11:30:21.030Z,14.54
2023-03-28T11:32:10.529Z,14.39
2023-03-28T11:33:18.826Z,14.48
2023-03-28T11:34:30.304Z,14.57
2023-03-28T11:35:58.011Z,14.93
2023-03-28T11:37:13.514Z,14.66
2023-03-28T11:38:20.096Z,14.61
2023-03-28T11:39:48.217Z,14.70
2023-03-28T11:41:07.509Z,14.71
2023-03-28T11:42:41.448Z,14.53
2023-03-28T11:43:58.346Z,14.31
2023-03-28T11:45:14.179Z,14.48
2023-03-28T11:46:27.626Z,14.47
2023-03-28T11:47:40.213Z,14.41
2023-03-28T11:49:09.220Z,14.80
2023-03-28T11:50:57.598Z,14.83
2023-03-28T11:52:17.054Z,14.40
2023-03-28T11:53:27.237Z,14.56
2023-03-28T11:54:42.799Z,14.99
2023-03-28T11:55:52.041Z,14.69
2023-03-28T11:57:32.477Z,14.74
2023-03-28T11:58:41.505Z,14.49
2023-03-28T12:00:32.767Z,14.62
2023-03-28T12:01:46.100Z,14.36
2023-03-28T12:02:52.570Z,14.54
2023-03-28T12:04:21.518Z,14.54
2023-03-28T12:05:32.997Z,14.35
2023-03-28T12:06:59.639Z,14.53
2023-03-28T12:08:12.593Z,14.60
2023-03-28T12:09:46.965Z,14.69
2023-03-28T12:11:04.612Z,14.38
2023-03-28T12:12:53.146Z,14.49
2023-03-28T12:14:11.502Z,14.63
2023-03-28T12:15:23.725Z,14.52
2023-03-28T12:16:41.890Z,14.54
2023-03-28T12:17:52.299Z,14.52
2023-03-28T12:19:00.214Z,14.39
2023-03-28T12:20:35.449Z,14.51
2023-03-28T12:21:45.146Z,14.56
2023-03-28T12:23:00.256Z,14.68
2023-03-28T12:24:24.985Z,14.33
2023-03-28T12:25:50.221Z,14.54
2023-03-28T12:27:17.482Z,14.69
2023-03-28T12:28:33.804Z,14.62
2023-03-28T12:29:40.632Z,14.71
2023-03-28T12:31:11.632Z,14.59
2023-03-28T12:32:46.719Z,14.32
2023-03-28T12:34:05.139Z,14.21
2023-03-28T12:36:12.374Z,14.47
2023-03-28T12:37:25.086Z,14.05
2023-03-28T12:38:32.952Z,14.05
2023-03-28T12:39:58.850Z,14.48
2023-03-28T12:41:09.416Z,14.30
2023-03-28T12:42:15.231Z,14.53
2023-03-28T12:43:21.932Z,14.23
2023-03-28T12:44:28.452Z,14.56
2023-03-28T12:45:41.363Z,14.41
2023-03-28T12:47:12.054Z,14.31
2023-03-28T12:48:33.739Z,14.29
2023-03-28T12:50:01.601Z,14.45
2023-03-28T12:51:06.617Z,14.25
2023-03-28T12:52:19.005Z,14.65
2023-03-28T12:53:24.322Z,14.26
2023-03-28T12:54:29.573Z,14.28
2023-03-28T12:55:50.023Z,14.25
2023-03-28T12:57:11.609Z,14.18
2023-03-28T12:58:24.959Z,14.30
2023-03-28T12:59:39.066Z,14.56
2023-03-28T13:01:18.390Z,14.31
2023-03-28T13:03:13.706Z,14.18
2023-03-28T13:04:57.841Z,13.99
2023-03-28T13:06:32.878Z,14.39
2023-03-28T13:08:05.020Z,14.44
2023-03-28T13:09:25.351Z,14.20
2023-03-28T13:10:45.881Z,14.18
2023-03-28T13:12:30.363Z,14.44
2023-03-28T13:13:59.094Z,14.23
2023-03-28T13:15:14.465Z,14.51
2023-03-28T13:16:24.745Z,14.55
2023-03-28T13:17:29.721Z,14.29
2023-03-28T13:18:34.494Z,14.35
2023-03-28T13:19:42.920Z,14.40
2023-03-28T13:20:47.109Z,14.50
2023-03-28T13:21:56.387Z,14.59
2023-03-28T13:23:02.215Z,14.29
2023-03-28T13:24:04.129Z,14.24
2023-03-28T13:25:34.925Z,14.45
2023-03-28T13:27:28.862Z,14.62
2023-03-28T13:28:36.203Z,14.55
2023-03-28T13:29:45.428Z,14.43
2023-03-28T13:30:47.473Z,14.37
2023-03-28T13:31:49.429Z,14.63
2023-03-28T13:32:54.323Z,14.57
2023-03-28T13:34:02.662Z,14.39
2023-03-28T13:35:05.923Z,14.56
2023-03-28T13:36:13.039Z,14.38
2023-03-28T13:37:37.036Z,14.56
2023-03-28T13:38:47.677Z,14.25
2023-03-28T13:39:58.469Z,14.48
2023-03-28T13:41:09.719Z,14.33
2023-03-28T13:42:34.558Z,14.30
2023-03-28T13:43:53.194Z,14.33
2023-03-28T13:44:59.759Z,14.43
2023-03-28T13:46:13.674Z,14.57
2023-03-28T13:47:26.729Z,14.30
2023-03-28T13:48:43.141Z,14.59
2023-03-28T13:50:00.131Z,14.34
2023-03-28T13:51:06.941Z,14.41
2023-03-28T13:52:12.624Z,14.45
2023-03-28T13:53:14.508Z,14.42
2023-03-28T13:54:16.425Z,14.56
2023-03-28T13:55:23.974Z,14.37
2023-03-28T13:56:29.945Z,14.45
2023-03-28T13:57:31.874Z,14.60
2023-03-28T13:58:33.937Z,14.79
2023-03-28T13:59:51.907Z,14.92
2023-03-28T14:01:07.520Z,14.58
2023-03-28T14:02:42.378Z,14.53
2023-03-28T14:03:47.255Z,14.50
2023-03-28T14:04:55.234Z,14.39
2023-03-28T14:05:57.155Z,14.31
2023-03-28T14:06:59.826Z,14.69
2023-03-28T14:08:13.668Z,14.44
2023-03-28T14:09:21.020Z,14.71
2023-03-28T14:10:31.507Z,14.31
2023-03-28T14:11:37.673Z,14.76
2023-03-28T14:12:39.579Z,14.68
2023-03-28T14:13:41.552Z,14.52
2023-03-28T14:14:51.535Z,14.66
2023-03-28T14:15:55.559Z,14.52
2023-03-28T14:16:58.257Z,14.65
2023-03-28T14:18:01.190Z,14.58
2023-03-28T14:19:05.760Z,14.40
2023-03-28T14:20:08.379Z,14.50
2023-03-28T14:21:10.785Z,14.70
2023-03-28T14:22:21.814Z,14.47
2023-03-28T14:23:31.316Z,14.66
2023-03-28T14:24:33.476Z,14.42
2023-03-28T14:25:35.573Z,14.49
2023-03-28T14:26:38.029Z,14.42
2023-03-28T14:27:49.694Z,14.68
2023-03-28T14:28:52.593Z,14.38
2023-03-28T14:29:56.970Z,14.62
2023-03-28T14:30:59.287Z,14.36
2023-03-28T14:32:06.030Z,14.70
2023-03-28T14:33:13.515Z,14.56
2023-03-28T14:34:26.481Z,14.27
2023-03-28T14:35:31.205Z,14.57
2023-03-28T14:36:37.935Z,14.26
2023-03-28T14:37:47.693Z,14.34
2023-03-28T14:38:49.828Z,14.52
2023-03-28T14:39:52.676Z,14.46
2023-03-28T14:40:55.984Z,14.02
2023-03-28T14:42:02.239Z,14.60
2023-03-28T14:43:12.206Z,14.61
2023-03-28T14:44:14.277Z,14.32
2023-03-28T14:45:16.845Z,14.52
2023-03-28T14:46:23.764Z,14.47
2023-03-28T14:47:33.406Z,14.52
2023-03-28T14:48:37.322Z,14.31
2023-03-28T14:49:39.310Z,14.37
2023-03-28T14:50:41.966Z,14.42
2023-03-28T14:51:47.240Z,14.51
2023-03-28T14:52:49.136Z,14.50
2023-03-28T14:53:51.974Z,14.64
2023-03-28T14:54:54.891Z,14.59
2023-03-28T14:56:02.146Z,14.24
2023-03-28T14:57:06.460Z,14.22
2023-03-28T14:58:12.936Z,14.25
2023-03-28T14:59:19.812Z,14.25
2023-03-28T15:00:27.585Z,14.53
2023-03-28T15:01:33.389Z,14.33
2023-03-28T15:02:39.504Z,14.31
2023-03-28T15:03:45.931Z,14.32
2023-03-28T15:04:48.339Z,14.60
2023-03-28T15:05:54.606Z,14.25
2023-03-28T15:06:57.926Z,14.19
2023-03-28T15:08:04.737Z,14.10
2023-03-28T15:09:20.822Z,14.45
2023-03-28T15:10:25.123Z,14.33
2023-03-28T15:11:30.269Z,13.99
2023-03-28T15:12:41.851Z,14.29
2023-03-28T15:13:47.962Z,14.41
2023-03-28T15:14:49.977Z,14.38
2023-03-28T15:15:55.240Z,14.33
2023-03-28T15:16:57.906Z,14.23
2023-03-28T15:18:03.235Z,14.15
2023-03-28T15:19:09.440Z,14.01
2023-03-28T15:20:21.106Z,14.24
2023-03-28T15:21:24.045Z,14.46
2023-03-28T15:22:30.108Z,14.63
2023-03-28T15:23:40.780Z,14.30
2023-03-28T15:24:44.440Z,14.12
2023-03-28T15:25:47.178Z,14.13